sensor_id;sensor_type;location;lat;lon;timestamp;P1;durP1;ratioP1;P2;durP2;ratioP2
37169;SDS011;23062;13.952;100.608;2023-06-10T00:04:30;13.00;;;10.00;;
37169;SDS011;23062;13.952;100.608;2023-06-10T00:09:00;23.00;;;14.93;;
37169;SDS011;23062;13.952;100.608;2023-06-10T00:13:27;15.00;;;11.00;;
37169;SDS011;23062;13.952;100.608;2023-06-10T00:17:56;13.00;;;10.00;;
37169;SDS011;23062;13.952;100.608;2023-06-10T00:22:23;11.00;;;8.00;;
37169;SDS011;23062;13.952;100.608;2023-06-10T00:26:54;15.00;;;10.00;;
37169;SDS011;23062;13.952;100.608;2023-06-10T00:31:29;11.00;;;8.00;;
37169;SDS011;23062;13.952;100.608;2023-06-10T00:36:02;13.00;;;10.00;;
37169;SDS011;23062;13.952;100.608;2023-06-10T00:40:39;12.00;;;9.00;;
37169;SDS011;23062;13.952;100.608;2023-06-10T00:45:05;16.00;;;12.00;;
37169;SDS011;23062;13.952;100.608;2023-06-10T00:49:32;12.00;;;9.00;;
37169;SDS011;23062;13.952;100.608;2023-06-10T00:53:59;12.00;;;8.00;;
37169;SDS011;23062;13.952;100.608;2023-06-10T00:58:25;9.00;;;7.00;;
37169;SDS011;23062;13.952;100.608;2023-06-10T01:02:53;10.00;;;8.00;;
37169;SDS011;23062;13.952;100.608;2023-06-10T01:07:38;13.00;;;9.00;;
37169;SDS011;23062;13.952;100.608;2023-06-10T01:17:12;9.00;;;6.00;;
37169;SDS011;23062;13.952;100.608;2023-06-10T01:21:47;9.00;;;7.00;;
37169;SDS011;23062;13.952;100.608;2023-06-10T01:26:22;10.00;;;7.00;;
37169;SDS011;23062;13.952;100.608;2023-06-10T01:35:37;7.00;;;5.00;;
37169;SDS011;23062;13.952;100.608;2023-06-10T01:40:05;10.00;;;7.00;;
37169;SDS011;23062;13.952;100.608;2023-06-10T01:44:34;9.00;;;6.00;;
37169;SDS011;23062;13.952;100.608;2023-06-10T01:49:00;7.00;;;5.00;;
37169;SDS011;23062;13.952;100.608;2023-06-10T01:53:33;10.00;;;7.00;;
37169;SDS011;23062;13.952;100.608;2023-06-10T01:58:00;9.00;;;6.00;;
37169;SDS011;23062;13.952;100.608;2023-06-10T02:02:29;10.00;;;7.00;;
37169;SDS011;23062;13.952;100.608;2023-06-10T02:06:55;10.00;;;7.00;;
37169;SDS011;23062;13.952;100.608;2023-06-10T02:11:28;9.00;;;6.00;;
37169;SDS011;23062;13.952;100.608;2023-06-10T02:16:02;9.00;;;6.00;;
37169;SDS011;23062;13.952;100.608;2023-06-10T02:20:31;2778.00;;;2069.00;;
37169;SDS011;23062;13.952;100.608;2023-06-10T02:24:58;9.00;;;6.00;;
37169;SDS011;23062;13.952;100.608;2023-06-10T02:29:30;145.00;;;116.00;;
37169;SDS011;23062;13.952;100.608;2023-06-10T02:33:56;9.00;;;6.00;;
37169;SDS011;23062;13.952;100.608;2023-06-10T02:38:29;8.00;;;6.00;;
37169;SDS011;23062;13.952;100.608;2023-06-10T02:43:03;7.00;;;5.00;;
37169;SDS011;23062;13.952;100.608;2023-06-10T02:47:29;2233.00;;;1582.00;;
37169;SDS011;23062;13.952;100.608;2023-06-10T02:51:55;6.00;;;4.00;;
37169;SDS011;23062;13.952;100.608;2023-06-10T02:56:22;9.00;;;6.00;;
37169;SDS011;23062;13.952;100.608;2023-06-10T03:00:53;7.00;;;5.00;;
37169;SDS011;23062;13.952;100.608;2023-06-10T03:05:21;7.00;;;4.00;;
37169;SDS011;23062;13.952;100.608;2023-06-10T03:09:47;8.00;;;6.00;;
37169;SDS011;23062;13.952;100.608;2023-06-10T03:14:13;8.00;;;5.00;;
37169;SDS011;23062;13.952;100.608;2023-06-10T03:18:39;6.00;;;4.00;;
37169;SDS011;23062;13.952;100.608;2023-06-10T03:23:16;8.00;;;5.00;;
37169;SDS011;23062;13.952;100.608;2023-06-10T03:27:50;7.00;;;5.00;;
37169;SDS011;23062;13.952;100.608;2023-06-10T03:32:16;8.00;;;6.00;;
37169;SDS011;23062;13.952;100.608;2023-06-10T03:36:42;9.00;;;6.00;;
37169;SDS011;23062;13.952;100.608;2023-06-10T03:41:08;6.00;;;4.00;;
37169;SDS011;23062;13.952;100.608;2023-06-10T03:45:39;9.00;;;6.00;;
37169;SDS011;23062;13.952;100.608;2023-06-10T03:50:14;8.00;;;5.00;;
37169;SDS011;23062;13.952;100.608;2023-06-10T03:54:47;6.00;;;4.00;;
37169;SDS011;23062;13.952;100.608;2023-06-10T03:59:20;6.00;;;4.00;;
37169;SDS011;23062;13.952;100.608;2023-06-10T04:03:48;7.00;;;5.00;;
37169;SDS011;23062;13.952;100.608;2023-06-10T04:08:23;7.00;;;5.00;;
37169;SDS011;23062;13.952;100.608;2023-06-10T04:12:48;9.00;;;6.00;;
37169;SDS011;23062;13.952;100.608;2023-06-10T04:17:18;7.00;;;4.00;;
37169;SDS011;23062;13.952;100.608;2023-06-10T04:21:44;6.00;;;4.00;;
37169;SDS011;23062;13.952;100.608;2023-06-10T04:26:11;6.00;;;4.00;;
37169;SDS011;23062;13.952;100.608;2023-06-10T04:30:37;7.00;;;5.00;;
37169;SDS011;23062;13.952;100.608;2023-06-10T04:35:12;7.00;;;5.00;;
37169;SDS011;23062;13.952;100.608;2023-06-10T04:39:38;10.00;;;7.00;;
37169;SDS011;23062;13.952;100.608;2023-06-10T04:44:04;7.00;;;5.00;;
37169;SDS011;23062;13.952;100.608;2023-06-10T04:48:30;9.00;;;6.00;;
37169;SDS011;23062;13.952;100.608;2023-06-10T04:52:58;6.00;;;4.00;;
37169;SDS011;23062;13.952;100.608;2023-06-10T04:57:25;7.00;;;5.00;;
37169;SDS011;23062;13.952;100.608;2023-06-10T05:01:51;5.00;;;3.00;;
37169;SDS011;23062;13.952;100.608;2023-06-10T05:06:31;8.00;;;5.00;;
37169;SDS011;23062;13.952;100.608;2023-06-10T05:11:02;7.00;;;4.00;;
37169;SDS011;23062;13.952;100.608;2023-06-10T05:15:33;7.00;;;5.00;;
37169;SDS011;23062;13.952;100.608;2023-06-10T05:19:59;4.00;;;3.00;;
37169;SDS011;23062;13.952;100.608;2023-06-10T05:24:27;6.00;;;4.00;;
37169;SDS011;23062;13.952;100.608;2023-06-10T05:28:53;7.00;;;5.00;;
37169;SDS011;23062;13.952;100.608;2023-06-10T05:33:22;8.00;;;5.00;;
37169;SDS011;23062;13.952;100.608;2023-06-10T05:37:48;2236.00;;;1621.20;;
37169;SDS011;23062;13.952;100.608;2023-06-10T05:42:15;6.00;;;4.00;;
37169;SDS011;23062;13.952;100.608;2023-06-10T05:46:47;10.00;;;7.00;;
37169;SDS011;23062;13.952;100.608;2023-06-10T05:51:14;8.00;;;6.00;;
37169;SDS011;23062;13.952;100.608;2023-06-10T05:55:42;9.00;;;6.00;;
37169;SDS011;23062;13.952;100.608;2023-06-10T06:00:10;7.00;;;5.00;;
37169;SDS011;23062;13.952;100.608;2023-06-10T06:04:45;8.00;;;5.00;;
37169;SDS011;23062;13.952;100.608;2023-06-10T06:09:13;7.00;;;5.00;;
37169;SDS011;23062;13.952;100.608;2023-06-10T06:13:42;7.00;;;5.00;;
37169;SDS011;23062;13.952;100.608;2023-06-10T06:18:09;10.00;;;7.00;;
37169;SDS011;23062;13.952;100.608;2023-06-10T06:22:36;9.00;;;7.00;;
37169;SDS011;23062;13.952;100.608;2023-06-10T06:27:09;9.00;;;6.00;;
37169;SDS011;23062;13.952;100.608;2023-06-10T06:31:36;11.00;;;8.00;;
37169;SDS011;23062;13.952;100.608;2023-06-10T06:36:03;10.00;;;7.00;;
37169;SDS011;23062;13.952;100.608;2023-06-10T06:40:31;11.00;;;7.00;;
37169;SDS011;23062;13.952;100.608;2023-06-10T06:45:05;11.00;;;7.00;;
37169;SDS011;23062;13.952;100.608;2023-06-10T06:49:32;10.00;;;7.00;;
37169;SDS011;23062;13.952;100.608;2023-06-10T06:54:00;7.00;;;5.00;;
37169;SDS011;23062;13.952;100.608;2023-06-10T06:58:35;9.00;;;6.00;;
37169;SDS011;23062;13.952;100.608;2023-06-10T07:03:02;6.00;;;4.00;;
37169;SDS011;23062;13.952;100.608;2023-06-10T07:07:35;8.00;;;5.00;;
37169;SDS011;23062;13.952;100.608;2023-06-10T07:12:08;9.00;;;6.00;;
37169;SDS011;23062;13.952;100.608;2023-06-10T07:16:36;9.00;;;6.00;;
37169;SDS011;23062;13.952;100.608;2023-06-10T07:21:01;7.00;;;5.00;;
37169;SDS011;23062;13.952;100.608;2023-06-10T07:25:29;9.00;;;6.00;;
37169;SDS011;23062;13.952;100.608;2023-06-10T07:29:55;8.00;;;5.00;;
37169;SDS011;23062;13.952;100.608;2023-06-10T07:34:30;8.00;;;6.00;;
37169;SDS011;23062;13.952;100.608;2023-06-10T07:39:05;8.00;;;6.00;;
37169;SDS011;23062;13.952;100.608;2023-06-10T07:43:39;2245.00;;;1787.00;;
37169;SDS011;23062;13.952;100.608;2023-06-10T07:48:05;2311.00;;;1795.00;;
37169;SDS011;23062;13.952;100.608;2023-06-10T07:52:34;2398.00;;;1824.00;;
37169;SDS011;23062;13.952;100.608;2023-06-10T07:57:08;898.00;;;714.00;;
37169;SDS011;23062;13.952;100.608;2023-06-10T08:01:34;2372.00;;;1872.00;;
37169;SDS011;23062;13.952;100.608;2023-06-10T08:06:02;2645.00;;;2040.00;;
37169;SDS011;23062;13.952;100.608;2023-06-10T08:10:37;2672.00;;;2050.00;;
37169;SDS011;23062;13.952;100.608;2023-06-10T08:15:03;2684.00;;;2088.00;;
37169;SDS011;23062;13.952;100.608;2023-06-10T08:19:35;2491.00;;;1935.00;;
37169;SDS011;23062;13.952;100.608;2023-06-10T08:24:09;2686.00;;;2078.00;;
37169;SDS011;23062;13.952;100.608;2023-06-10T08:28:35;2190.00;;;1563.33;;
37169;SDS011;23062;13.952;100.608;2023-06-10T08:33:08;2654.00;;;2089.00;;
37169;SDS011;23062;13.952;100.608;2023-06-10T08:37:37;2765.00;;;2099.00;;
37169;SDS011;23062;13.952;100.608;2023-06-10T08:46:37;2676.00;;;2103.00;;
37169;SDS011;23062;13.952;100.608;2023-06-10T08:51:07;2655.00;;;2053.00;;
37169;SDS011;23062;13.952;100.608;2023-06-10T08:55:41;2247.00;;;1581.07;;
37169;SDS011;23062;13.952;100.608;2023-06-10T09:00:06;2682.00;;;2080.00;;
37169;SDS011;23062;13.952;100.608;2023-06-10T09:04:35;2728.00;;;2096.00;;
37169;SDS011;23062;13.952;100.608;2023-06-10T09:09:03;2796.00;;;2090.00;;
37169;SDS011;23062;13.952;100.608;2023-06-10T09:13:33;2691.00;;;2092.00;;
37169;SDS011;23062;13.952;100.608;2023-06-10T09:17:59;2787.00;;;2098.00;;
37169;SDS011;23062;13.952;100.608;2023-06-10T09:22:34;2795.00;;;2107.00;;
37169;SDS011;23062;13.952;100.608;2023-06-10T09:27:06;2508.00;;;1951.00;;
37169;SDS011;23062;13.952;100.608;2023-06-10T09:31:41;804.00;;;633.00;;
37169;SDS011;23062;13.952;100.608;2023-06-10T09:36:07;2539.00;;;1855.47;;
37169;SDS011;23062;13.952;100.608;2023-06-10T09:40:34;904.00;;;675.00;;
37169;SDS011;23062;13.952;100.608;2023-06-10T09:45:03;2297.00;;;1737.00;;
37169;SDS011;23062;13.952;100.608;2023-06-10T09:49:32;1983.00;;;1515.00;;
37169;SDS011;23062;13.952;100.608;2023-06-10T09:54:03;2292.00;;;1769.00;;
37169;SDS011;23062;13.952;100.608;2023-06-10T09:58:40;1403.00;;;1067.00;;
37169;SDS011;23062;13.952;100.608;2023-06-10T10:03:09;1175.00;;;884.00;;
37169;SDS011;23062;13.952;100.608;2023-06-10T10:07:38;1337.00;;;1003.00;;
37169;SDS011;23062;13.952;100.608;2023-06-10T10:12:09;1973.00;;;1578.00;;
37169;SDS011;23062;13.952;100.608;2023-06-10T10:16:40;2735.00;;;2118.00;;
37169;SDS011;23062;13.952;100.608;2023-06-10T10:21:05;2648.00;;;2106.00;;
37169;SDS011;23062;13.952;100.608;2023-06-10T10:25:41;2674.00;;;2098.00;;
37169;SDS011;23062;13.952;100.608;2023-06-10T10:30:11;2648.00;;;2075.00;;
37169;SDS011;23062;13.952;100.608;2023-06-10T10:39:15;2798.00;;;2103.00;;
37169;SDS011;23062;13.952;100.608;2023-06-10T10:43:44;2673.00;;;2106.00;;
37169;SDS011;23062;13.952;100.608;2023-06-10T10:48:12;2757.00;;;2080.00;;
37169;SDS011;23062;13.952;100.608;2023-06-10T10:52:53;2684.00;;;2106.00;;
37169;SDS011;23062;13.952;100.608;2023-06-10T10:57:32;2818.00;;;2105.00;;
37169;SDS011;23062;13.952;100.608;2023-06-10T11:02:01;2585.00;;;2040.00;;
37169;SDS011;23062;13.952;100.608;2023-06-10T11:06:29;2696.00;;;2057.00;;
37169;SDS011;23062;13.952;100.608;2023-06-10T11:11:17;2748.00;;;2076.00;;
37169;SDS011;23062;13.952;100.608;2023-06-10T11:15:47;2516.00;;;2019.00;;
37169;SDS011;23062;13.952;100.608;2023-06-10T11:25:13;2608.00;;;2004.00;;
37169;SDS011;23062;13.952;100.608;2023-06-10T11:29:38;2748.00;;;2075.00;;
37169;SDS011;23062;13.952;100.608;2023-06-10T11:34:06;2618.00;;;2058.00;;
37169;SDS011;23062;13.952;100.608;2023-06-10T11:38:40;2521.00;;;2005.00;;
37169;SDS011;23062;13.952;100.608;2023-06-10T11:43:07;2601.00;;;2049.00;;
37169;SDS011;23062;13.952;100.608;2023-06-10T11:47:34;2640.00;;;2072.00;;
37169;SDS011;23062;13.952;100.608;2023-06-10T11:52:07;2726.00;;;2085.00;;
37169;SDS011;23062;13.952;100.608;2023-06-10T11:56:34;2800.00;;;2092.00;;
37169;SDS011;23062;13.952;100.608;2023-06-10T12:01:01;2419.00;;;1894.00;;
37169;SDS011;23062;13.952;100.608;2023-06-10T12:05:35;2545.00;;;2018.00;;
37169;SDS011;23062;13.952;100.608;2023-06-10T12:10:03;2621.00;;;2028.00;;
37169;SDS011;23062;13.952;100.608;2023-06-10T12:19:29;2277.00;;;1596.93;;
37169;SDS011;23062;13.952;100.608;2023-06-10T12:24:00;2679.00;;;2018.00;;
37169;SDS011;23062;13.952;100.608;2023-06-10T12:28:32;2642.00;;;2016.00;;
37169;SDS011;23062;13.952;100.608;2023-06-10T12:32:59;2680.00;;;2034.00;;
37169;SDS011;23062;13.952;100.608;2023-06-10T12:37:25;2694.00;;;2057.00;;
37169;SDS011;23062;13.952;100.608;2023-06-10T12:41:51;2682.00;;;2053.00;;
37169;SDS011;23062;13.952;100.608;2023-06-10T12:46:23;2635.00;;;2003.00;;
37169;SDS011;23062;13.952;100.608;2023-06-10T12:50:52;2681.00;;;2032.00;;
37169;SDS011;23062;13.952;100.608;2023-06-10T12:55:28;2704.00;;;2020.00;;
37169;SDS011;23062;13.952;100.608;2023-06-10T13:00:02;2498.00;;;1996.00;;
37169;SDS011;23062;13.952;100.608;2023-06-10T13:04:37;2447.00;;;1931.00;;
37169;SDS011;23062;13.952;100.608;2023-06-10T13:09:09;2589.00;;;1943.00;;
37169;SDS011;23062;13.952;100.608;2023-06-10T13:13:37;2442.00;;;1947.00;;
37169;SDS011;23062;13.952;100.608;2023-06-10T13:18:04;2528.00;;;1901.00;;
37169;SDS011;23062;13.952;100.608;2023-06-10T13:22:30;2429.00;;;1862.00;;
37169;SDS011;23062;13.952;100.608;2023-06-10T13:26:57;2590.00;;;1942.00;;
37169;SDS011;23062;13.952;100.608;2023-06-10T13:31:25;2548.00;;;1896.00;;
37169;SDS011;23062;13.952;100.608;2023-06-10T13:35:52;2505.00;;;1904.00;;
37169;SDS011;23062;13.952;100.608;2023-06-10T13:40:25;2648.00;;;1972.00;;
37169;SDS011;23062;13.952;100.608;2023-06-10T13:44:59;2537.00;;;1927.00;;
37169;SDS011;23062;13.952;100.608;2023-06-10T13:49:26;2648.00;;;1987.00;;
37169;SDS011;23062;13.952;100.608;2023-06-10T13:53:56;2566.00;;;1964.00;;
37169;SDS011;23062;13.952;100.608;2023-06-10T13:58:24;2533.00;;;1911.00;;
37169;SDS011;23062;13.952;100.608;2023-06-10T14:02:50;2576.00;;;2034.00;;
37169;SDS011;23062;13.952;100.608;2023-06-10T14:07:23;2550.00;;;1908.00;;
37169;SDS011;23062;13.952;100.608;2023-06-10T14:11:59;2522.00;;;1820.93;;
37169;SDS011;23062;13.952;100.608;2023-06-10T14:16:34;2488.00;;;1992.00;;
37169;SDS011;23062;13.952;100.608;2023-06-10T14:21:07;2638.00;;;2049.00;;
37169;SDS011;23062;13.952;100.608;2023-06-10T14:25:33;2591.00;;;2064.00;;
37169;SDS011;23062;13.952;100.608;2023-06-10T14:30:03;2715.00;;;2033.00;;
37169;SDS011;23062;13.952;100.608;2023-06-10T14:34:31;2460.00;;;1974.00;;
37169;SDS011;23062;13.952;100.608;2023-06-10T14:38:58;2691.00;;;2063.00;;
37169;SDS011;23062;13.952;100.608;2023-06-10T14:43:34;2523.00;;;2020.00;;
37169;SDS011;23062;13.952;100.608;2023-06-10T14:48:00;2561.00;;;2026.00;;
37169;SDS011;23062;13.952;100.608;2023-06-10T14:52:29;2525.00;;;1945.00;;
37169;SDS011;23062;13.952;100.608;2023-06-10T14:56:57;2479.00;;;1964.00;;
37169;SDS011;23062;13.952;100.608;2023-06-10T15:01:30;2657.00;;;1985.00;;
37169;SDS011;23062;13.952;100.608;2023-06-10T15:06:05;2540.00;;;1993.00;;
37169;SDS011;23062;13.952;100.608;2023-06-10T15:10:34;2554.00;;;2017.00;;
37169;SDS011;23062;13.952;100.608;2023-06-10T15:15:00;2671.00;;;2046.00;;
37169;SDS011;23062;13.952;100.608;2023-06-10T15:19:27;2615.00;;;2011.00;;
37169;SDS011;23062;13.952;100.608;2023-06-10T15:24:01;2699.00;;;2080.00;;
37169;SDS011;23062;13.952;100.608;2023-06-10T15:28:27;2603.00;;;1997.00;;
37169;SDS011;23062;13.952;100.608;2023-06-10T15:32:57;2680.00;;;1996.00;;
37169;SDS011;23062;13.952;100.608;2023-06-10T15:37:24;2617.00;;;2030.00;;
37169;SDS011;23062;13.952;100.608;2023-06-10T15:41:57;2523.00;;;2000.00;;
37169;SDS011;23062;13.952;100.608;2023-06-10T15:46:24;2475.00;;;1870.00;;
37169;SDS011;23062;13.952;100.608;2023-06-10T15:50:51;1922.00;;;1443.00;;
37169;SDS011;23062;13.952;100.608;2023-06-10T15:55:18;2068.00;;;1609.00;;
37169;SDS011;23062;13.952;100.608;2023-06-10T15:59:45;2491.00;;;1840.53;;
37169;SDS011;23062;13.952;100.608;2023-06-10T16:04:13;2567.00;;;1918.00;;
37169;SDS011;23062;13.952;100.608;2023-06-10T16:08:41;2496.00;;;1937.00;;
37169;SDS011;23062;13.952;100.608;2023-06-10T16:13:08;2483.00;;;1991.00;;
37169;SDS011;23062;13.952;100.608;2023-06-10T16:17:39;2672.00;;;2028.00;;
37169;SDS011;23062;13.952;100.608;2023-06-10T16:22:13;2666.00;;;2031.00;;
37169;SDS011;23062;13.952;100.608;2023-06-10T16:26:44;2757.00;;;2055.00;;
37169;SDS011;23062;13.952;100.608;2023-06-10T16:31:19;2666.00;;;2061.00;;
37169;SDS011;23062;13.952;100.608;2023-06-10T16:35:47;2752.00;;;2068.00;;
37169;SDS011;23062;13.952;100.608;2023-06-10T16:40:20;2671.00;;;2067.00;;
37169;SDS011;23062;13.952;100.608;2023-06-10T16:44:55;2635.00;;;2079.00;;
37169;SDS011;23062;13.952;100.608;2023-06-10T16:49:30;2730.00;;;2101.00;;
37169;SDS011;23062;13.952;100.608;2023-06-10T16:53:58;2736.00;;;2091.00;;
37169;SDS011;23062;13.952;100.608;2023-06-10T16:58:24;2719.00;;;2091.00;;
37169;SDS011;23062;13.952;100.608;2023-06-10T17:02:51;2620.00;;;2079.00;;
37169;SDS011;23062;13.952;100.608;2023-06-10T17:07:26;2688.00;;;2118.00;;
37169;SDS011;23062;13.952;100.608;2023-06-10T17:11:52;2726.00;;;2104.00;;
37169;SDS011;23062;13.952;100.608;2023-06-10T17:16:19;2641.00;;;2109.00;;
37169;SDS011;23062;13.952;100.608;2023-06-10T17:20:46;2601.00;;;2074.00;;
37169;SDS011;23062;13.952;100.608;2023-06-10T17:25:12;2732.00;;;2049.00;;
37169;SDS011;23062;13.952;100.608;2023-06-10T17:29:40;2633.00;;;2096.00;;
37169;SDS011;23062;13.952;100.608;2023-06-10T17:34:14;2629.00;;;2078.00;;
37169;SDS011;23062;13.952;100.608;2023-06-10T17:38:42;2629.00;;;2050.00;;
37169;SDS011;23062;13.952;100.608;2023-06-10T17:43:09;2627.00;;;2098.00;;
37169;SDS011;23062;13.952;100.608;2023-06-10T17:47:40;2588.00;;;2070.00;;
37169;SDS011;23062;13.952;100.608;2023-06-10T17:52:06;2651.00;;;2100.00;;
37169;SDS011;23062;13.952;100.608;2023-06-10T17:56:33;2714.00;;;2046.00;;
37169;SDS011;23062;13.952;100.608;2023-06-10T18:00:59;2798.00;;;2095.00;;
37169;SDS011;23062;13.952;100.608;2023-06-10T18:05:25;2780.00;;;2077.00;;
37169;SDS011;23062;13.952;100.608;2023-06-10T18:09:52;2685.00;;;2081.00;;
37169;SDS011;23062;13.952;100.608;2023-06-10T18:14:28;2644.00;;;2095.00;;
37169;SDS011;23062;13.952;100.608;2023-06-10T18:19:02;2430.00;;;1874.00;;
37169;SDS011;23062;13.952;100.608;2023-06-10T18:23:36;2759.00;;;2102.00;;
37169;SDS011;23062;13.952;100.608;2023-06-10T18:28:04;2678.00;;;2108.00;;
37169;SDS011;23062;13.952;100.608;2023-06-10T18:32:32;1414.00;;;1118.00;;
37169;SDS011;23062;13.952;100.608;2023-06-10T18:36:58;124.00;;;96.00;;
37169;SDS011;23062;13.952;100.608;2023-06-10T18:41:25;1321.00;;;1030.00;;
37169;SDS011;23062;13.952;100.608;2023-06-10T18:45:52;168.00;;;128.00;;
37169;SDS011;23062;13.952;100.608;2023-06-10T18:50:19;75.00;;;58.00;;
37169;SDS011;23062;13.952;100.608;2023-06-10T18:54:46;45.00;;;35.00;;
37169;SDS011;23062;13.952;100.608;2023-06-10T18:59:12;20.00;;;14.00;;
37169;SDS011;23062;13.952;100.608;2023-06-10T19:03:38;7.00;;;5.00;;
37169;SDS011;23062;13.952;100.608;2023-06-10T19:08:05;9.00;;;6.00;;
37169;SDS011;23062;13.952;100.608;2023-06-10T19:12:35;6.00;;;4.00;;
37169;SDS011;23062;13.952;100.608;2023-06-10T19:17:01;8.00;;;5.00;;
37169;SDS011;23062;13.952;100.608;2023-06-10T19:21:28;10.00;;;7.00;;
37169;SDS011;23062;13.952;100.608;2023-06-10T19:25:54;7.00;;;5.00;;
37169;SDS011;23062;13.952;100.608;2023-06-10T19:30:25;9.00;;;6.00;;
37169;SDS011;23062;13.952;100.608;2023-06-10T19:35:00;7.00;;;5.00;;
37169;SDS011;23062;13.952;100.608;2023-06-10T19:39:26;8.00;;;5.00;;
37169;SDS011;23062;13.952;100.608;2023-06-10T19:43:53;9.00;;;6.00;;
37169;SDS011;23062;13.952;100.608;2023-06-10T19:48:18;7.00;;;5.00;;
37169;SDS011;23062;13.952;100.608;2023-06-10T19:52:45;10.00;;;7.00;;
37169;SDS011;23062;13.952;100.608;2023-06-10T19:57:18;9.00;;;6.00;;
37169;SDS011;23062;13.952;100.608;2023-06-10T20:01:44;8.00;;;5.00;;
37169;SDS011;23062;13.952;100.608;2023-06-10T20:06:16;8.00;;;6.00;;
37169;SDS011;23062;13.952;100.608;2023-06-10T20:10:42;8.00;;;5.00;;
37169;SDS011;23062;13.952;100.608;2023-06-10T20:15:08;10.00;;;7.00;;
37169;SDS011;23062;13.952;100.608;2023-06-10T20:19:34;9.00;;;6.00;;
37169;SDS011;23062;13.952;100.608;2023-06-10T20:24:07;8.00;;;5.00;;
37169;SDS011;23062;13.952;100.608;2023-06-10T20:28:33;9.00;;;6.00;;
37169;SDS011;23062;13.952;100.608;2023-06-10T20:33:06;11.00;;;7.00;;
37169;SDS011;23062;13.952;100.608;2023-06-10T20:37:33;9.00;;;6.00;;
37169;SDS011;23062;13.952;100.608;2023-06-10T20:41:59;10.00;;;7.00;;
37169;SDS011;23062;13.952;100.608;2023-06-10T20:46:28;9.00;;;7.00;;
37169;SDS011;23062;13.952;100.608;2023-06-10T20:50:54;13.00;;;9.00;;
37169;SDS011;23062;13.952;100.608;2023-06-10T20:55:21;11.00;;;8.00;;
37169;SDS011;23062;13.952;100.608;2023-06-10T20:59:56;12.00;;;8.00;;
37169;SDS011;23062;13.952;100.608;2023-06-10T21:04:26;13.00;;;9.00;;
37169;SDS011;23062;13.952;100.608;2023-06-10T21:08:53;12.00;;;9.00;;
37169;SDS011;23062;13.952;100.608;2023-06-10T21:13:25;12.00;;;9.00;;
37169;SDS011;23062;13.952;100.608;2023-06-10T21:17:53;14.00;;;10.00;;
37169;SDS011;23062;13.952;100.608;2023-06-10T21:22:19;13.00;;;9.00;;
37169;SDS011;23062;13.952;100.608;2023-06-10T21:26:46;13.00;;;9.00;;
37169;SDS011;23062;13.952;100.608;2023-06-10T21:31:15;14.00;;;10.00;;
37169;SDS011;23062;13.952;100.608;2023-06-10T21:35:48;13.00;;;9.00;;
37169;SDS011;23062;13.952;100.608;2023-06-10T21:40:16;13.00;;;9.00;;
37169;SDS011;23062;13.952;100.608;2023-06-10T21:44:44;11.00;;;8.00;;
37169;SDS011;23062;13.952;100.608;2023-06-10T21:49:10;12.00;;;8.00;;
37169;SDS011;23062;13.952;100.608;2023-06-10T21:53:44;10.00;;;7.00;;
37169;SDS011;23062;13.952;100.608;2023-06-10T21:58:11;11.00;;;8.00;;
37169;SDS011;23062;13.952;100.608;2023-06-10T22:02:39;13.00;;;9.00;;
37169;SDS011;23062;13.952;100.608;2023-06-10T22:07:06;16.00;;;11.00;;
37169;SDS011;23062;13.952;100.608;2023-06-10T22:11:32;10.00;;;7.00;;
37169;SDS011;23062;13.952;100.608;2023-06-10T22:16:06;16.00;;;12.00;;
37169;SDS011;23062;13.952;100.608;2023-06-10T22:20:32;15.00;;;11.00;;
37169;SDS011;23062;13.952;100.608;2023-06-10T22:25:06;13.00;;;10.00;;
37169;SDS011;23062;13.952;100.608;2023-06-10T22:29:36;13.00;;;10.00;;
37169;SDS011;23062;13.952;100.608;2023-06-10T22:34:04;13.00;;;9.00;;
37169;SDS011;23062;13.952;100.608;2023-06-10T22:38:31;14.00;;;10.00;;
37169;SDS011;23062;13.952;100.608;2023-06-10T22:42:57;14.00;;;10.00;;
37169;SDS011;23062;13.952;100.608;2023-06-10T22:47:23;13.00;;;9.00;;
37169;SDS011;23062;13.952;100.608;2023-06-10T22:51:57;14.00;;;10.00;;
37169;SDS011;23062;13.952;100.608;2023-06-10T22:56:25;16.00;;;12.00;;
37169;SDS011;23062;13.952;100.608;2023-06-10T23:00:51;18.00;;;13.00;;
37169;SDS011;23062;13.952;100.608;2023-06-10T23:05:16;17.00;;;12.00;;
37169;SDS011;23062;13.952;100.608;2023-06-10T23:09:44;17.00;;;12.00;;
37169;SDS011;23062;13.952;100.608;2023-06-10T23:14:18;16.00;;;11.00;;
37169;SDS011;23062;13.952;100.608;2023-06-10T23:18:44;18.00;;;14.00;;
37169;SDS011;23062;13.952;100.608;2023-06-10T23:23:11;18.00;;;13.00;;
37169;SDS011;23062;13.952;100.608;2023-06-10T23:27:43;17.00;;;12.00;;
37169;SDS011;23062;13.952;100.608;2023-06-10T23:32:09;15.00;;;11.00;;
37169;SDS011;23062;13.952;100.608;2023-06-10T23:36:35;17.00;;;13.00;;
37169;SDS011;23062;13.952;100.608;2023-06-10T23:41:02;18.00;;;13.00;;
37169;SDS011;23062;13.952;100.608;2023-06-10T23:45:28;18.00;;;14.00;;
37169;SDS011;23062;13.952;100.608;2023-06-10T23:49:56;17.00;;;12.00;;
37169;SDS011;23062;13.952;100.608;2023-06-10T23:54:22;15.00;;;10.00;;
37169;SDS011;23062;13.952;100.608;2023-06-10T23:58:49;16.00;;;12.00;;
